createdAt,value
2018-09-02T00:00:29.157Z,16.60
2018-09-02T00:02:57.556Z,16.50
2018-09-02T00:05:25.922Z,16.50
2018-09-02T00:07:54.402Z,16.50
2018-09-02T00:10:22.907Z,16.40
2018-09-02T00:12:51.696Z,16.40
2018-09-02T00:15:20.091Z,16.40
2018-09-02T00:17:48.466Z,16.30
2018-09-02T00:20:16.956Z,16.30
2018-09-02T00:22:49.587Z,16.30
2018-09-02T00:25:18.130Z,16.30
2018-09-02T00:27:46.580Z,16.30
2018-09-02T00:30:14.967Z,16.30
2018-09-02T00:32:43.367Z,16.30
2018-09-02T00:35:11.829Z,16.30
2018-09-02T00:37:40.163Z,16.30
2018-09-02T00:40:09.486Z,16.30
2018-09-02T00:42:38.143Z,16.30
2018-09-02T00:45:07.499Z,16.20
2018-09-02T00:47:35.855Z,16.20
2018-09-02T00:50:04.330Z,16.20
2018-09-02T00:52:32.705Z,16.20
2018-09-02T00:55:01.038Z,16.10
2018-09-02T00:57:29.390Z,16.10
2018-09-02T00:59:57.818Z,16.10
2018-09-02T01:02:26.194Z,16.10
2018-09-02T01:04:54.595Z,16.10
2018-09-02T01:07:23.235Z,16.00
2018-09-02T01:09:51.767Z,16.10
2018-09-02T01:12:20.165Z,16.00
2018-09-02T01:14:48.499Z,16.00
2018-09-02T01:17:16.928Z,16.00
2018-09-02T01:19:45.363Z,16.00
2018-09-02T01:22:13.737Z,16.00
2018-09-02T01:24:42.270Z,16.00
2018-09-02T01:27:14.626Z,16.00
2018-09-02T01:29:43.015Z,15.90
2018-09-02T01:32:11.449Z,15.90
2018-09-02T01:34:39.832Z,15.90
2018-09-02T01:37:08.210Z,15.90
2018-09-02T01:39:36.602Z,15.90
2018-09-02T01:42:05.068Z,15.90
2018-09-02T01:44:33.572Z,15.90
2018-09-02T01:47:01.932Z,15.80
2018-09-02T01:49:30.254Z,15.90
2018-09-02T01:51:58.619Z,15.90
2018-09-02T01:54:27.436Z,15.80
2018-09-02T01:56:55.823Z,15.80
2018-09-02T01:59:24.162Z,15.80
2018-09-02T02:01:52.711Z,15.80
2018-09-02T02:04:21.118Z,15.70
2018-09-02T02:06:49.529Z,15.80
2018-09-02T02:09:17.861Z,15.80
2018-09-02T02:11:46.332Z,15.90
2018-09-02T02:14:19.137Z,15.90
2018-09-02T02:16:47.505Z,15.90
2018-09-02T02:19:15.909Z,15.80
2018-09-02T02:21:44.277Z,15.80
2018-09-02T02:24:12.658Z,15.90
2018-09-02T02:26:41.052Z,15.80
2018-09-02T02:29:09.591Z,15.80
2018-09-02T02:31:38.012Z,15.80
2018-09-02T02:34:06.552Z,15.80
2018-09-02T02:36:35.267Z,15.80
2018-09-02T02:39:04.669Z,15.80
2018-09-02T02:41:33.022Z,15.80
2018-09-02T02:44:02.054Z,15.80
2018-09-02T02:46:30.401Z,15.70
2018-09-02T02:49:03.338Z,15.70
2018-09-02T02:51:31.682Z,15.70
2018-09-02T02:54:00.052Z,15.70
2018-09-02T02:56:28.434Z,15.70
2018-09-02T02:58:57.019Z,15.80
2018-09-02T03:01:25.378Z,15.80
2018-09-02T03:03:54.360Z,15.80
2018-09-02T03:06:22.986Z,15.70
2018-09-02T03:08:51.842Z,15.80
2018-09-02T03:11:20.222Z,15.90
2018-09-02T03:13:48.616Z,15.80
2018-09-02T03:16:16.932Z,15.80
2018-09-02T03:18:45.272Z,15.90
2018-09-02T03:21:13.644Z,15.90
2018-09-02T03:23:41.981Z,15.80
2018-09-02T03:26:10.345Z,15.80
2018-09-02T03:28:38.750Z,15.90
2018-09-02T03:31:07.221Z,15.90
2018-09-02T03:33:35.598Z,15.90
2018-09-02T03:36:03.983Z,15.90
2018-09-02T03:38:32.402Z,15.90
2018-09-02T03:41:00.788Z,15.80
2018-09-02T03:43:29.134Z,15.80
2018-09-02T03:46:02.079Z,15.80
2018-09-02T03:48:30.510Z,15.80
2018-09-02T03:50:59.310Z,15.80
2018-09-02T03:53:27.689Z,15.80
2018-09-02T03:55:56.717Z,15.80
2018-09-02T03:58:25.253Z,15.80
2018-09-02T04:00:53.773Z,15.80
2018-09-02T04:03:22.428Z,15.70
2018-09-02T04:05:50.823Z,15.70
2018-09-02T04:08:19.228Z,15.70
2018-09-02T04:10:47.654Z,15.70
2018-09-02T04:13:16.080Z,15.60
2018-09-02T04:15:44.398Z,15.70
2018-09-02T04:18:12.782Z,15.70
2018-09-02T04:20:41.144Z,15.70
2018-09-02T04:23:09.598Z,15.70
2018-09-02T04:25:37.985Z,15.70
2018-09-02T04:28:06.434Z,15.60
2018-09-02T04:30:34.843Z,15.70
2018-09-02T04:33:03.201Z,15.70
2018-09-02T04:35:31.613Z,15.70
2018-09-02T04:37:59.993Z,15.70
2018-09-02T04:40:28.372Z,15.70
2018-09-02T04:42:56.757Z,15.70
2018-09-02T04:45:25.239Z,15.70
2018-09-02T04:47:53.562Z,15.80
2018-09-02T04:50:21.977Z,15.80
2018-09-02T04:52:50.974Z,15.80
2018-09-02T04:55:19.346Z,15.70
2018-09-02T04:57:47.693Z,15.70
2018-09-02T05:00:16.110Z,15.70
2018-09-02T05:02:44.491Z,15.70
2018-09-02T05:05:12.897Z,15.70
2018-09-02T05:07:41.210Z,15.80
2018-09-02T05:10:09.617Z,15.70
2018-09-02T05:12:37.997Z,15.70
2018-09-02T05:15:06.693Z,15.70
2018-09-02T05:17:35.252Z,15.70
2018-09-02T05:20:03.646Z,15.70
2018-09-02T05:22:32.957Z,15.70
2018-09-02T05:25:01.306Z,15.70
2018-09-02T05:27:29.728Z,15.80
2018-09-02T05:29:58.063Z,15.80
2018-09-02T05:32:26.444Z,15.80
2018-09-02T05:34:59.708Z,15.80
2018-09-02T05:37:28.091Z,15.80
2018-09-02T05:39:56.491Z,15.90
2018-09-02T05:42:24.973Z,15.90
2018-09-02T05:44:53.346Z,15.80
2018-09-02T05:47:21.689Z,15.80
2018-09-02T05:49:50.130Z,15.90
2018-09-02T05:52:18.610Z,15.80
2018-09-02T05:54:46.966Z,15.90
2018-09-02T05:57:15.342Z,16.00
2018-09-02T05:59:43.657Z,15.90
2018-09-02T06:02:12.082Z,15.90
2018-09-02T06:04:40.491Z,15.90
2018-09-02T06:07:08.936Z,15.90
2018-09-02T06:09:37.277Z,15.90
2018-09-02T06:12:06.454Z,16.00
2018-09-02T06:14:39.176Z,16.00
2018-09-02T06:17:07.625Z,16.00
2018-09-02T06:19:35.948Z,16.10
2018-09-02T06:22:04.604Z,16.20
2018-09-02T06:24:33.029Z,16.20
2018-09-02T06:27:03.619Z,16.20
2018-09-02T06:29:32.621Z,16.20
2018-09-02T06:32:01.009Z,16.20
2018-09-02T06:34:29.380Z,16.20
2018-09-02T06:36:57.719Z,16.20
2018-09-02T06:39:26.140Z,16.20
2018-09-02T06:41:54.479Z,16.20
2018-09-02T06:44:22.858Z,16.20
2018-09-02T06:46:51.586Z,16.20
2018-09-02T06:49:19.959Z,16.20
2018-09-02T06:51:48.335Z,16.30
2018-09-02T06:54:16.739Z,16.30
2018-09-02T06:56:45.076Z,16.20
2018-09-02T06:59:13.468Z,16.10
2018-09-02T07:01:41.933Z,16.20
2018-09-02T07:04:10.895Z,16.20
2018-09-02T07:06:39.419Z,16.20
2018-09-02T07:09:07.693Z,16.30
2018-09-02T07:11:36.253Z,16.30
2018-09-02T07:14:04.619Z,16.30
2018-09-02T07:16:33.014Z,16.30
2018-09-02T07:19:01.412Z,16.30
2018-09-02T07:21:29.805Z,16.30
2018-09-02T07:23:58.180Z,16.40
2018-09-02T07:26:26.535Z,16.40
2018-09-02T07:28:54.958Z,16.40
2018-09-02T07:31:23.403Z,16.50
2018-09-02T07:33:51.763Z,16.60
2018-09-02T07:36:20.143Z,16.70
2018-09-02T07:38:48.544Z,16.80
2018-09-02T07:41:16.952Z,16.80
2018-09-02T07:43:46.049Z,16.90
2018-09-02T07:46:14.294Z,17.00
2018-09-02T07:48:42.714Z,17.00
2018-09-02T07:51:11.129Z,17.10
2018-09-02T07:53:39.553Z,16.90
2018-09-02T07:56:07.954Z,17.00
2018-09-02T07:58:36.340Z,17.20
2018-09-02T08:01:04.884Z,17.20
2018-09-02T08:03:33.235Z,17.40
2018-09-02T08:06:01.889Z,17.50
2018-09-02T08:08:30.258Z,17.60
2018-09-02T08:10:58.675Z,17.60
2018-09-02T08:13:27.122Z,17.80
2018-09-02T08:15:55.453Z,17.80
2018-09-02T08:18:23.889Z,17.90
2018-09-02T08:20:52.244Z,18.00
2018-09-02T08:23:20.674Z,18.00
2018-09-02T08:25:49.061Z,18.00
2018-09-02T08:28:17.489Z,18.00
2018-09-02T08:30:45.970Z,18.10
2018-09-02T08:33:14.384Z,18.20
2018-09-02T08:35:42.732Z,18.20
2018-09-02T08:38:11.129Z,18.20
2018-09-02T08:40:39.550Z,18.30
2018-09-02T08:43:07.894Z,18.40
2018-09-02T08:45:36.427Z,18.50
2018-09-02T08:48:04.810Z,18.40
2018-09-02T08:50:33.229Z,18.40
2018-09-02T08:53:01.549Z,18.40
2018-09-02T08:55:29.958Z,18.50
2018-09-02T08:57:58.440Z,18.50
2018-09-02T09:00:26.850Z,18.40
2018-09-02T09:02:55.538Z,18.60
2018-09-02T09:05:23.906Z,18.70
2018-09-02T09:07:57.224Z,18.70
2018-09-02T09:10:25.538Z,18.90
2018-09-02T09:12:53.946Z,18.90
2018-09-02T09:15:22.346Z,18.90
2018-09-02T09:17:50.711Z,18.90
2018-09-02T09:20:19.337Z,18.90
2018-09-02T09:22:47.816Z,18.90
2018-09-02T09:25:16.255Z,19.00
2018-09-02T09:27:44.805Z,19.20
2018-09-02T09:30:13.248Z,19.20
2018-09-02T09:32:41.624Z,19.20
2018-09-02T09:35:10.592Z,19.30
2018-09-02T09:37:38.955Z,19.50
2018-09-02T09:40:07.848Z,19.60
2018-09-02T09:42:36.202Z,19.60
2018-09-02T09:45:05.280Z,19.70
2018-09-02T09:47:33.855Z,19.60
2018-09-02T09:50:02.261Z,19.60
2018-09-02T09:52:30.660Z,19.50
2018-09-02T09:54:59.174Z,19.50
2018-09-02T09:57:27.546Z,19.40
2018-09-02T09:59:56.036Z,19.30
2018-09-02T10:02:24.426Z,19.40
2018-09-02T10:04:52.831Z,19.30
2018-09-02T10:07:21.217Z,19.20
2018-09-02T10:09:49.672Z,19.30
2018-09-02T10:12:18.050Z,19.30
2018-09-02T10:14:46.418Z,19.30
2018-09-02T10:17:14.860Z,19.20
2018-09-02T10:19:43.167Z,19.20
2018-09-02T10:22:11.534Z,19.20
2018-09-02T10:24:39.903Z,19.30
2018-09-02T10:27:08.281Z,19.20
2018-09-02T10:29:36.692Z,19.30
2018-09-02T10:32:09.528Z,19.30
2018-09-02T10:34:37.880Z,19.40
2018-09-02T10:37:06.264Z,19.40
2018-09-02T10:39:34.633Z,19.40
2018-09-02T10:42:03.095Z,19.30
2018-09-02T10:44:31.527Z,19.40
2018-09-02T10:46:59.907Z,19.40
2018-09-02T10:49:28.367Z,19.40
2018-09-02T10:51:56.683Z,19.40
2018-09-02T10:54:25.058Z,19.30
2018-09-02T10:56:53.576Z,19.30
2018-09-02T10:59:28.028Z,19.10
2018-09-02T11:01:56.435Z,19.20
2018-09-02T11:04:24.804Z,19.10
2018-09-02T11:06:53.294Z,19.00
2018-09-02T11:09:21.678Z,19.10
2018-09-02T11:11:50.146Z,19.20
2018-09-02T11:14:18.544Z,19.20
2018-09-02T11:16:46.878Z,19.10
2018-09-02T11:19:15.315Z,19.20
2018-09-02T11:21:43.736Z,19.20
2018-09-02T11:24:12.104Z,19.30
2018-09-02T11:26:40.455Z,19.40
2018-09-02T11:29:08.886Z,19.40
2018-09-02T11:31:37.323Z,19.40
2018-09-02T11:34:05.745Z,19.40
2018-09-02T11:36:34.087Z,19.40
2018-09-02T11:39:03.744Z,19.30
2018-09-02T11:41:32.563Z,19.40
2018-09-02T11:44:00.964Z,19.30
2018-09-02T11:46:29.354Z,19.50
2018-09-02T11:48:57.895Z,19.60
2018-09-02T11:51:26.481Z,19.80
2018-09-02T11:53:54.939Z,19.80
2018-09-02T11:56:23.286Z,19.80
2018-09-02T11:58:51.724Z,19.70
2018-09-02T12:01:20.119Z,19.80
2018-09-02T12:03:48.549Z,19.80
2018-09-02T12:06:16.879Z,19.90
2018-09-02T12:08:45.318Z,19.80
2018-09-02T12:11:13.734Z,19.80
2018-09-02T12:13:42.103Z,19.90
2018-09-02T12:16:10.639Z,20.00
2018-09-02T12:18:38.971Z,20.00
2018-09-02T12:21:07.331Z,19.90
2018-09-02T12:23:35.806Z,20.00
2018-09-02T12:26:04.208Z,20.20
2018-09-02T12:28:32.637Z,20.30
2018-09-02T12:31:01.000Z,20.20
2018-09-02T12:33:29.383Z,20.30
2018-09-02T12:35:57.850Z,20.40
2018-09-02T12:38:26.222Z,20.40
2018-09-02T12:40:54.841Z,20.50
2018-09-02T12:43:23.245Z,20.50
2018-09-02T12:45:51.941Z,20.50
2018-09-02T12:48:20.432Z,20.50
2018-09-02T12:50:48.707Z,20.50
2018-09-02T12:53:17.115Z,20.60
2018-09-02T12:55:45.482Z,20.60
2018-09-02T12:58:14.170Z,20.60
2018-09-02T13:00:42.563Z,20.50
2018-09-02T13:03:10.956Z,20.40
2018-09-02T13:05:39.419Z,20.20
2018-09-02T13:08:07.875Z,20.10
2018-09-02T13:10:36.275Z,20.20
2018-09-02T13:13:04.770Z,20.30
2018-09-02T13:15:33.172Z,20.50
2018-09-02T13:18:01.554Z,20.60
2018-09-02T13:20:30.075Z,20.50
2018-09-02T13:22:58.470Z,20.50
2018-09-02T13:25:26.882Z,20.40
2018-09-02T13:27:55.295Z,20.30
2018-09-02T13:30:23.773Z,20.30
2018-09-02T13:32:52.168Z,20.30
2018-09-02T13:35:20.596Z,20.40
2018-09-02T13:37:48.977Z,20.30
2018-09-02T13:40:17.457Z,20.20
2018-09-02T13:42:45.889Z,20.10
2018-09-02T13:45:14.546Z,20.00
2018-09-02T13:47:42.966Z,20.00
2018-09-02T13:50:11.384Z,20.00
2018-09-02T13:52:39.762Z,20.00
2018-09-02T13:55:08.176Z,19.80
2018-09-02T13:57:36.619Z,19.90
2018-09-02T14:00:05.118Z,19.80
2018-09-02T14:02:33.509Z,19.70
2018-09-02T14:05:01.915Z,19.70
2018-09-02T14:07:30.378Z,19.70
2018-09-02T14:09:58.742Z,19.80
2018-09-02T14:12:27.277Z,19.90
2018-09-02T14:14:55.712Z,20.00
2018-09-02T14:17:24.105Z,19.80
2018-09-02T14:19:52.585Z,19.60
2018-09-02T14:22:20.957Z,19.70
2018-09-02T14:24:49.332Z,19.80
2018-09-02T14:27:17.735Z,19.80
2018-09-02T14:29:46.151Z,19.90
2018-09-02T14:32:14.556Z,19.80
2018-09-02T14:34:42.937Z,19.80
2018-09-02T14:37:11.331Z,19.90
2018-09-02T14:39:39.780Z,19.90
2018-09-02T14:42:08.189Z,19.90
2018-09-02T14:44:36.555Z,19.80
2018-09-02T14:47:05.022Z,19.80
2018-09-02T14:49:33.523Z,19.80
2018-09-02T14:52:01.944Z,19.90
2018-09-02T14:54:30.381Z,19.90
2018-09-02T14:56:58.767Z,19.90
2018-09-02T14:59:27.115Z,19.80
2018-09-02T15:01:55.514Z,19.80
2018-09-02T15:04:24.022Z,19.70
2018-09-02T15:06:52.381Z,19.70
2018-09-02T15:09:20.767Z,19.60
2018-09-02T15:11:49.219Z,19.60
2018-09-02T15:14:17.627Z,19.60
2018-09-02T15:16:46.049Z,19.50
2018-09-02T15:19:14.513Z,19.50
2018-09-02T15:21:42.950Z,19.50
2018-09-02T15:24:11.347Z,19.50
2018-09-02T15:26:39.729Z,19.40
2018-09-02T15:29:08.119Z,19.40
2018-09-02T15:31:36.570Z,19.40
2018-09-02T15:34:04.946Z,19.40
2018-09-02T15:36:33.356Z,19.30
2018-09-02T15:39:01.763Z,19.30
2018-09-02T15:41:30.190Z,19.30
2018-09-02T15:43:58.962Z,19.30
2018-09-02T15:46:27.299Z,19.20
2018-09-02T15:48:55.764Z,19.30
2018-09-02T15:51:24.198Z,19.20
2018-09-02T15:53:52.577Z,19.30
2018-09-02T15:56:20.972Z,19.30
2018-09-02T15:58:49.339Z,19.30
2018-09-02T16:01:17.742Z,19.30
2018-09-02T16:03:46.122Z,19.30
2018-09-02T16:06:14.583Z,19.30
2018-09-02T16:08:42.853Z,19.30
2018-09-02T16:11:11.272Z,19.40
2018-09-02T16:13:39.706Z,19.40
2018-09-02T16:16:08.154Z,19.30
2018-09-02T16:18:36.587Z,19.30
2018-09-02T16:21:05.108Z,19.30
2018-09-02T16:23:33.530Z,19.30
2018-09-02T16:26:02.131Z,19.30
2018-09-02T16:28:30.557Z,19.40
2018-09-02T16:30:58.949Z,19.20
2018-09-02T16:33:27.369Z,19.30
2018-09-02T16:35:55.837Z,19.30
2018-09-02T16:38:25.080Z,19.30
2018-09-02T16:40:53.431Z,19.20
2018-09-02T16:43:22.516Z,19.20
2018-09-02T16:45:50.901Z,19.10
2018-09-02T16:48:19.358Z,19.00
2018-09-02T16:50:47.770Z,19.10
2018-09-02T16:53:16.164Z,19.10
2018-09-02T16:55:44.523Z,19.00
2018-09-02T16:58:13.002Z,19.00
2018-09-02T17:00:41.445Z,19.00
2018-09-02T17:03:09.828Z,19.00
2018-09-02T17:05:38.283Z,19.00
2018-09-02T17:08:06.675Z,18.90
2018-09-02T17:10:35.042Z,18.90
2018-09-02T17:13:03.478Z,18.80
2018-09-02T17:15:31.954Z,18.80
2018-09-02T17:18:00.416Z,18.80
2018-09-02T17:20:33.850Z,18.80
2018-09-02T17:23:18.243Z,18.70
2018-09-02T17:25:47.149Z,18.70
2018-09-02T17:28:15.587Z,18.70
2018-09-02T17:30:43.986Z,18.70
2018-09-02T17:33:13.470Z,18.70
2018-09-02T17:35:41.973Z,18.70
2018-09-02T17:38:10.433Z,18.70
2018-09-02T17:40:38.822Z,18.70
2018-09-02T17:43:07.194Z,18.70
2018-09-02T17:45:35.649Z,18.70
2018-09-02T17:48:04.133Z,18.70
2018-09-02T17:50:32.611Z,18.70
2018-09-02T17:53:01.096Z,18.70
2018-09-02T17:55:29.516Z,18.50
2018-09-02T17:57:57.927Z,18.50
2018-09-02T18:00:31.054Z,18.40
2018-09-02T18:02:59.513Z,18.50
2018-09-02T18:05:27.882Z,18.50
2018-09-02T18:07:56.322Z,18.50
2018-09-02T18:10:24.773Z,18.40
2018-09-02T18:12:53.211Z,18.40
2018-09-02T18:15:21.620Z,18.40
2018-09-02T18:17:50.054Z,18.30
2018-09-02T18:20:18.620Z,18.40
2018-09-02T18:22:47.042Z,18.40
2018-09-02T18:25:15.579Z,18.40
2018-09-02T18:27:47.051Z,18.30
2018-09-02T18:30:15.709Z,18.30
2018-09-02T18:32:44.387Z,18.30
2018-09-02T18:35:12.855Z,18.30
2018-09-02T18:37:41.263Z,18.30
2018-09-02T18:40:09.649Z,18.30
2018-09-02T18:42:38.361Z,18.30
2018-09-02T18:45:07.094Z,18.20
2018-09-02T18:47:35.800Z,18.20
2018-09-02T18:50:04.404Z,18.20
2018-09-02T18:52:32.805Z,18.20
2018-09-02T18:55:01.525Z,18.30
2018-09-02T18:57:29.961Z,18.20
2018-09-02T18:59:58.644Z,18.20
2018-09-02T19:02:27.103Z,18.20
2018-09-02T19:04:55.731Z,18.20
2018-09-02T19:07:24.721Z,18.20
2018-09-02T19:09:53.216Z,18.10
2018-09-02T19:12:21.620Z,18.10
2018-09-02T19:14:50.288Z,18.10
2018-09-02T19:17:19.006Z,18.00
2018-09-02T19:19:47.488Z,18.10
2018-09-02T19:22:15.841Z,18.00
2018-09-02T19:24:44.563Z,18.00
2018-09-02T19:27:13.051Z,18.00
2018-09-02T19:29:41.780Z,17.90
2018-09-02T19:32:10.517Z,18.00
2018-09-02T19:34:38.954Z,18.00
2018-09-02T19:37:07.495Z,18.00
2018-09-02T19:39:35.968Z,18.00
2018-09-02T19:42:04.638Z,18.00
2018-09-02T19:44:33.165Z,18.00
2018-09-02T19:47:01.660Z,18.00
2018-09-02T19:49:30.134Z,18.00
2018-09-02T19:51:58.691Z,18.00
2018-09-02T19:54:27.164Z,17.80
2018-09-02T19:56:55.679Z,17.80
2018-09-02T19:59:24.188Z,17.90
2018-09-02T20:01:52.569Z,17.80
2018-09-02T20:04:20.971Z,17.90
2018-09-02T20:06:49.404Z,17.80
2018-09-02T20:09:17.812Z,17.80
2018-09-02T20:11:46.194Z,17.90
2018-09-02T20:14:14.697Z,17.80
2018-09-02T20:16:43.063Z,17.80
2018-09-02T20:19:12.285Z,17.90
2018-09-02T20:21:40.601Z,17.80
2018-09-02T20:24:08.961Z,17.80
2018-09-02T20:26:37.645Z,17.80
2018-09-02T20:29:06.080Z,17.90
2018-09-02T20:31:34.544Z,17.90
2018-09-02T20:34:02.952Z,17.90
2018-09-02T20:36:31.342Z,17.90
2018-09-02T20:38:59.986Z,17.90
2018-09-02T20:41:28.371Z,17.90
2018-09-02T20:43:56.779Z,17.80
2018-09-02T20:46:25.251Z,17.80
2018-09-02T20:48:53.651Z,17.80
2018-09-02T20:51:22.095Z,17.80
2018-09-02T20:53:50.476Z,17.70
2018-09-02T20:56:22.723Z,17.70
2018-09-02T20:58:51.693Z,17.70
2018-09-02T21:01:20.167Z,17.70
2018-09-02T21:03:48.543Z,17.60
2018-09-02T21:06:16.994Z,17.60
2018-09-02T21:08:45.424Z,17.70
2018-09-02T21:11:13.814Z,17.70
2018-09-02T21:13:42.226Z,17.70
2018-09-02T21:16:10.602Z,17.70
2018-09-02T21:18:39.030Z,17.60
2018-09-02T21:21:07.659Z,17.60
2018-09-02T21:23:36.227Z,17.60
2018-09-02T21:26:05.372Z,17.60
2018-09-02T21:28:33.852Z,17.60
2018-09-02T21:31:02.220Z,17.60
2018-09-02T21:33:30.568Z,17.60
2018-09-02T21:35:59.046Z,17.60
2018-09-02T21:38:27.526Z,17.50
2018-09-02T21:40:55.947Z,17.60
2018-09-02T21:43:24.561Z,17.50
2018-09-02T21:45:52.912Z,17.50
2018-09-02T21:48:21.902Z,17.50
2018-09-02T21:50:51.119Z,17.60
2018-09-02T21:53:19.550Z,17.50
2018-09-02T21:55:47.970Z,17.60
2018-09-02T21:58:16.348Z,17.50
2018-09-02T22:00:44.825Z,17.60
2018-09-02T22:03:13.268Z,17.60
2018-09-02T22:05:41.891Z,17.70
2018-09-02T22:08:10.271Z,17.60
2018-09-02T22:10:39.495Z,17.60
2018-09-02T22:13:07.971Z,17.60
2018-09-02T22:15:36.340Z,17.60
2018-09-02T22:18:05.034Z,17.60
2018-09-02T22:20:33.887Z,17.60
2018-09-02T22:23:02.941Z,17.60
2018-09-02T22:25:31.381Z,17.60
2018-09-02T22:27:59.710Z,17.60
2018-09-02T22:30:28.127Z,17.70
2018-09-02T22:32:56.545Z,17.70
2018-09-02T22:35:24.966Z,17.70
2018-09-02T22:37:53.424Z,17.70
2018-09-02T22:40:21.785Z,17.60
2018-09-02T22:42:50.243Z,17.60
2018-09-02T22:45:18.662Z,17.60
2018-09-02T22:47:47.083Z,17.60
2018-09-02T22:50:15.591Z,17.60
2018-09-02T22:52:43.974Z,17.50
2018-09-02T22:55:12.380Z,17.50
2018-09-02T22:57:41.012Z,17.50
2018-09-02T23:00:09.474Z,17.60
2018-09-02T23:02:37.862Z,17.50
2018-09-02T23:05:06.288Z,17.50
2018-09-02T23:07:34.751Z,17.50
2018-09-02T23:10:03.167Z,17.50
2018-09-02T23:12:31.714Z,17.40
2018-09-02T23:15:00.074Z,17.50
2018-09-02T23:17:28.438Z,17.50
2018-09-02T23:19:56.905Z,17.50
2018-09-02T23:22:25.281Z,17.50
2018-09-02T23:24:53.646Z,17.50
2018-09-02T23:27:22.020Z,17.50
2018-09-02T23:29:50.464Z,17.40
2018-09-02T23:32:18.831Z,17.40
2018-09-02T23:34:47.184Z,17.40
2018-09-02T23:37:15.597Z,17.30
2018-09-02T23:39:43.963Z,17.30
2018-09-02T23:42:12.772Z,17.40
2018-09-02T23:44:41.207Z,17.30
2018-09-02T23:47:09.583Z,17.30
2018-09-02T23:49:37.908Z,17.20
2018-09-02T23:52:06.277Z,17.20
2018-09-02T23:54:34.626Z,17.20
2018-09-02T23:57:03.015Z,17.10
2018-09-02T23:59:31.357Z,17.20
